Time;durP1;ratioP1;P1;durP2;ratioP2;P2;SDS_P1;SDS_P2;PMS_P1;PMS_P2;Temp;Humidity;BMP_temperature;BMP_pressure;BME280_temperature;BME280_humidity;BME280_pressure;Samples;Min_cycle;Max_cycle;Signal;HPM_P1;HPM_P2
2022/10/11 00:00:44;;;;;;;2.92;0.60;;;6.70;99.90;;;;;;5047837;28;20048;-78
2022/10/11 00:03:10;;;;;;;3.22;0.60;;;6.70;99.90;;;;;;5012290;28;20400;-77
2022/10/11 00:05:36;;;;;;;4.07;0.55;;;6.50;99.90;;;;;;5047304;28;20108;-77
2022/10/11 00:08:04;;;;;;;3.83;0.70;;;6.50;99.90;;;;;;5012494;28;20032;-77
2022/10/11 00:10:31;;;;;;;2.28;0.50;;;6.50;99.90;;;;;;5029553;28;20408;-77
2022/10/11 00:12:57;;;;;;;1.80;0.45;;;6.40;99.90;;;;;;5045580;28;20075;-77
2022/10/11 00:15:23;;;;;;;1.85;0.50;;;6.40;99.90;;;;;;5047252;28;20025;-76
2022/10/11 00:17:49;;;;;;;2.22;0.50;;;6.40;99.90;;;;;;5029277;28;20048;-77
2022/10/11 00:20:15;;;;;;;3.22;0.50;;;6.30;99.90;;;;;;5046575;28;20284;-76
2022/10/11 00:22:41;;;;;;;2.40;0.40;;;6.30;99.90;;;;;;5046613;28;20534;-77
2022/10/11 00:25:09;;;;;;;3.85;1.02;;;6.20;99.90;;;;;;5029208;28;20079;-77
2022/10/11 00:27:35;;;;;;;1.98;0.40;;;6.40;99.90;;;;;;5062368;28;20040;-79
2022/10/11 00:30:03;;;;;;;2.83;0.50;;;6.40;99.90;;;;;;5028362;28;20374;-77
2022/10/11 00:32:28;;;;;;;1.40;0.50;;;6.30;99.90;;;;;;5029088;28;20037;-78
2022/10/11 00:34:55;;;;;;;1.75;0.57;;;6.30;99.90;;;;;;5046372;28;20075;-76
2022/10/11 00:37:20;;;;;;;1.70;0.40;;;6.30;99.90;;;;;;5062256;28;20052;-78
2022/10/11 00:39:46;;;;;;;2.15;0.40;;;6.20;99.90;;;;;;5012901;28;20032;-78
2022/10/11 00:42:14;;;;;;;2.22;0.43;;;6.10;99.90;;;;;;5046380;28;20132;-77
2022/10/11 00:44:44;;;;;;;3.22;0.70;;;6.10;99.90;;;;;;5046829;28;20032;-76
2022/10/11 00:47:13;;;;;;;;;;;6.00;99.90;;;;;;5047257;28;20043;-76
2022/10/11 00:49:44;;;;;;;2.88;0.65;;;6.00;99.90;;;;;;5028388;28;19917;-77
2022/10/11 00:52:39;;;;;;;3.42;0.60;;;6.10;99.90;;;;;;5061995;28;20348;-77
2022/10/11 00:55:12;;;;;;;1.77;0.40;;;6.00;99.90;;;;;;5029238;28;20025;-77
2022/10/11 00:57:42;;;;;;;2.85;0.35;;;6.10;99.90;;;;;;5030936;28;20045;-79
2022/10/11 01:00:11;;;;;;;1.98;0.40;;;6.10;99.90;;;;;;5033541;28;20429;-77
2022/10/11 01:02:37;;;;;;;1.63;0.40;;;5.90;99.90;;;;;;5013700;28;20045;-76
2022/10/11 01:05:04;;;;;;;2.50;0.40;;;5.90;99.90;;;;;;5032630;28;20021;-78
2022/10/11 01:07:32;;;;;;;2.90;0.60;;;5.90;99.90;;;;;;5050635;28;20043;-77
2022/10/11 01:09:57;;;;;;;3.95;0.65;;;5.80;99.90;;;;;;5033478;28;20021;-76
2022/10/11 01:12:26;;;;;;;2.25;0.47;;;5.80;99.90;;;;;;5050043;28;20083;-76
2022/10/11 01:15:15;;;;;;;3.15;0.70;;;5.80;99.90;;;;;;5050773;28;20021;-77
2022/10/11 01:18:09;;;;;;;2.88;0.40;;;5.80;99.90;;;;;;5065829;28;20033;-76
2022/10/11 01:21:04;;;;;;;1.55;0.38;;;5.80;99.90;;;;;;5033511;28;20032;-77
2022/10/11 01:23:44;;;;;;;3.42;0.50;;;5.70;99.90;;;;;;5049265;28;20678;-77
2022/10/11 01:26:32;;;;;;;2.20;0.40;;;5.70;99.90;;;;;;5032463;28;20059;-77
2022/10/11 01:29:16;;;;;;;2.95;0.50;;;5.80;99.90;;;;;;5050667;28;20380;-78
2022/10/11 01:32:04;;;;;;;1.55;0.40;;;5.80;99.90;;;;;;5050629;28;20424;-77
2022/10/11 01:34:49;;;;;;;2.70;0.50;;;5.60;99.90;;;;;;5047928;28;20033;-77
2022/10/11 01:37:25;;;;;;;2.78;0.43;;;5.60;99.90;;;;;;5032155;28;20028;-77
2022/10/11 01:40:04;;;;;;;1.88;0.40;;;5.50;99.90;;;;;;5049234;28;20017;-77
2022/10/11 01:42:30;;;;;;;2.15;0.70;;;5.50;99.90;;;;;;5013552;28;20412;-76
2022/10/11 01:44:58;;;;;;;2.25;0.52;;;5.40;99.90;;;;;;5050204;28;20100;-76
2022/10/11 01:47:24;;;;;;;1.65;0.50;;;5.50;99.90;;;;;;5048653;28;20032;-76
2022/10/11 01:49:59;;;;;;;2.38;0.63;;;5.70;99.90;;;;;;5031599;28;20029;-77
2022/10/11 01:52:30;;;;;;;3.10;0.90;;;5.70;99.90;;;;;;5030885;28;20040;-78
2022/10/11 01:55:29;;;;;;;1.20;0.40;;;5.60;99.90;;;;;;5049747;28;20368;-77
2022/10/11 01:58:21;;;;;;;2.03;0.50;;;5.50;99.90;;;;;;5025639;28;20021;-76
2022/10/11 02:01:20;;;;;;;1.52;0.40;;;5.50;99.90;;;;;;5065355;28;20037;-76
2022/10/11 02:04:09;;;;;;;2.35;0.43;;;5.40;99.90;;;;;;5049182;28;20436;-78
2022/10/11 02:06:53;;;;;;;2.88;0.43;;;5.40;99.90;;;;;;5049561;28;20481;-77
2022/10/11 02:09:28;;;;;;;2.75;0.50;;;5.40;99.90;;;;;;5031371;28;20265;-77
2022/10/11 02:12:00;;;;;;;1.40;0.40;;;5.50;99.90;;;;;;5049904;28;20116;-77
2022/10/11 02:14:29;;;;;;;1.60;0.57;;;5.30;99.90;;;;;;5064121;28;20032;-77
2022/10/11 02:17:02;;;;;;;1.88;0.50;;;5.30;99.90;;;;;;5014768;28;20024;-77
2022/10/11 02:19:34;;;;;;;1.65;0.50;;;5.20;99.90;;;;;;5031483;28;20076;-77
2022/10/11 02:22:06;;;;;;;1.98;0.50;;;5.30;99.90;;;;;;5031320;28;20020;-76
2022/10/11 02:24:35;;;;;;;3.17;0.50;;;5.40;99.90;;;;;;5031559;28;20036;-77
2022/10/11 02:27:03;;;;;;;2.50;0.60;;;5.30;99.90;;;;;;5049450;28;20347;-79
2022/10/11 02:29:31;;;;;;;3.55;0.50;;;5.20;99.90;;;;;;5034678;28;20036;-77
2022/10/11 02:31:59;;;;;;;2.45;0.50;;;5.20;99.90;;;;;;5048684;28;20116;-78
2022/10/11 02:34:34;;;;;;;1.55;0.60;;;5.20;99.90;;;;;;5048520;28;20112;-77
2022/10/11 02:37:06;;;;;;;4.82;0.50;;;5.00;99.90;;;;;;5029918;28;20025;-77
2022/10/11 02:39:40;;;;;;;2.55;0.50;;;4.90;99.90;;;;;;5047240;28;20116;-77
2022/10/11 02:42:17;;;;;;;1.95;0.50;;;5.00;99.90;;;;;;5030397;28;20041;-77
2022/10/11 02:44:49;;;;;;;2.63;0.40;;;5.30;99.90;;;;;;5048810;28;20073;-77
2022/10/11 02:47:15;;;;;;;3.60;0.52;;;5.20;99.90;;;;;;5028982;28;20049;-77
2022/10/11 02:49:41;;;;;;;1.48;0.55;;;5.10;99.90;;;;;;5014936;28;20029;-77
2022/10/11 02:52:07;;;;;;;2.40;0.50;;;5.00;99.90;;;;;;5014549;28;20025;-76
2022/10/11 02:54:33;;;;;;;0.73;0.30;;;4.90;99.90;;;;;;5014403;28;20037;-76
2022/10/11 02:56:58;;;;;;;2.60;0.40;;;5.00;99.90;;;;;;5048111;28;20021;-77
2022/10/11 02:59:24;;;;;;;3.25;0.47;;;4.90;99.90;;;;;;5047835;28;20538;-77
2022/10/11 03:01:49;;;;;;;2.75;0.50;;;4.90;99.90;;;;;;5030966;28;20017;-77
2022/10/11 03:04:15;;;;;;;4.80;0.43;;;4.80;99.90;;;;;;5063096;28;20512;-77
2022/10/11 03:06:41;;;;;;;1.40;0.47;;;5.10;99.90;;;;;;5064447;28;20032;-77
2022/10/11 03:09:06;;;;;;;1.92;0.50;;;5.10;99.90;;;;;;5030381;28;20044;-76
2022/10/11 03:11:32;;;;;;;2.47;0.50;;;5.00;99.90;;;;;;5030225;28;20052;-77
2022/10/11 03:13:58;;;;;;;3.97;0.38;;;4.90;99.90;;;;;;5030177;28;20126;-77
2022/10/11 03:16:24;;;;;;;2.38;0.50;;;4.90;99.90;;;;;;5030114;28;20491;-77
2022/10/11 03:18:50;;;;;;;2.72;0.45;;;4.80;99.90;;;;;;5030315;28;20499;-76
2022/10/11 03:21:15;;;;;;;3.38;0.40;;;4.70;99.90;;;;;;5029543;28;20025;-77
2022/10/11 03:23:41;;;;;;;1.10;0.40;;;5.00;99.90;;;;;;5048123;28;20048;-78
2022/10/11 03:26:07;;;;;;;3.05;0.50;;;5.00;99.90;;;;;;5047772;28;20021;-77
2022/10/11 03:28:33;;;;;;;2.63;0.40;;;4.90;99.90;;;;;;5047841;28;20142;-76
2022/10/11 03:30:58;;;;;;;1.30;0.40;;;4.90;99.90;;;;;;5063822;28;20492;-77
2022/10/11 03:33:24;;;;;;;2.17;0.40;;;4.90;99.90;;;;;;5013554;28;20171;-77
2022/10/11 03:35:50;;;;;;;1.35;0.40;;;4.80;99.90;;;;;;5030413;28;20037;-77
2022/10/11 03:38:19;;;;;;;1.40;0.40;;;4.70;99.90;;;;;;5029780;28;20029;-76
2022/10/11 03:40:45;;;;;;;1.75;0.40;;;4.90;99.90;;;;;;5048277;28;20090;-78
2022/10/11 03:43:11;;;;;;;3.05;0.50;;;4.90;99.90;;;;;;5010755;28;20045;-76
2022/10/11 03:45:37;;;;;;;1.92;0.40;;;4.90;99.90;;;;;;5029385;28;20103;-77
2022/10/11 03:48:03;;;;;;;1.77;0.60;;;4.90;99.90;;;;;;5047333;28;20021;-78
2022/10/11 03:50:29;;;;;;;1.73;0.40;;;4.80;99.90;;;;;;5046894;28;20044;-76
2022/10/11 03:52:55;;;;;;;1.55;0.50;;;4.70;99.90;;;;;;5046776;28;20476;-76
2022/10/11 03:55:21;;;;;;;1.20;0.50;;;4.70;99.90;;;;;;5027483;28;20033;-76
2022/10/11 03:57:47;;;;;;;3.05;0.57;;;4.80;99.90;;;;;;5062152;28;20028;-77
2022/10/11 04:00:13;;;;;;;1.10;0.40;;;4.70;99.90;;;;;;5028457;28;20444;-76
2022/10/11 04:02:38;;;;;;;1.35;0.40;;;4.70;99.90;;;;;;5046877;28;20069;-77
2022/10/11 04:05:05;;;;;;;1.70;0.43;;;4.70;99.90;;;;;;5046475;28;21942;-78
2022/10/11 04:07:31;;;;;;;1.35;0.47;;;4.70;99.90;;;;;;5045171;28;20055;-77
2022/10/11 04:09:57;;;;;;;1.05;0.40;;;4.70;99.90;;;;;;5028838;28;20071;-77
2022/10/11 04:12:22;;;;;;;1.80;0.38;;;4.80;99.90;;;;;;5060630;28;20505;-77
2022/10/11 04:14:48;;;;;;;1.65;0.40;;;4.70;99.90;;;;;;5046319;28;20465;-76
2022/10/11 04:17:14;;;;;;;2.85;0.40;;;4.70;99.90;;;;;;5045787;28;20028;-76
2022/10/11 04:19:39;;;;;;;1.65;0.40;;;4.70;99.90;;;;;;5029087;28;20041;-77
2022/10/11 04:22:05;;;;;;;3.95;1.15;;;4.70;99.90;;;;;;5028910;28;20295;-78
2022/10/11 04:24:31;;;;;;;1.05;0.50;;;4.80;99.90;;;;;;5028132;28;20032;-77
2022/10/11 04:26:57;;;;;;;1.90;0.40;;;4.70;99.90;;;;;;5045003;28;20122;-78
2022/10/11 04:29:23;;;;;;;1.10;0.30;;;4.60;99.90;;;;;;5061704;28;20488;-77
2022/10/11 04:31:49;;;;;;;1.75;0.60;;;4.70;99.90;;;;;;5027713;28;20033;-77
2022/10/11 04:34:15;;;;;;;1.83;0.40;;;4.70;99.90;;;;;;5027871;28;20037;-77
2022/10/11 04:36:40;;;;;;;1.40;0.50;;;4.60;99.90;;;;;;5043628;28;20017;-76
2022/10/11 04:39:06;;;;;;;1.63;0.40;;;4.60;99.90;;;;;;5028526;28;20521;-79
2022/10/11 04:41:33;;;;;;;1.83;0.40;;;4.60;99.90;;;;;;4990762;28;1067996;-78
2022/10/11 04:44:00;;;;;;;1.98;0.40;;;4.60;99.90;;;;;;5013634;28;20046;-77
2022/10/11 04:46:25;;;;;;;1.73;0.40;;;4.50;99.90;;;;;;5046423;28;20525;-77
2022/10/11 04:48:51;;;;;;;2.95;0.45;;;4.60;99.90;;;;;;5030008;28;20132;-77
2022/10/11 04:51:17;;;;;;;0.90;0.40;;;4.60;99.90;;;;;;5046157;28;20078;-80
2022/10/11 04:53:43;;;;;;;1.05;0.40;;;4.60;99.90;;;;;;5029293;28;20021;-78
2022/10/11 04:56:13;;;;;;;1.95;0.45;;;4.80;99.90;;;;;;5045100;28;20131;-78
2022/10/11 04:58:40;;;;;;;0.70;0.30;;;4.70;99.90;;;;;;5043071;28;20493;-76
2022/10/11 05:01:06;;;;;;;2.92;0.30;;;4.70;99.90;;;;;;5012635;28;20051;-79
2022/10/11 05:03:32;;;;;;;0.80;0.40;;;4.60;99.90;;;;;;5061035;28;20040;-79
2022/10/11 05:05:58;;;;;;;1.63;0.38;;;4.70;99.90;;;;;;5046479;28;20477;-78
2022/10/11 05:08:25;;;;;;;1.73;0.40;;;4.60;99.90;;;;;;5028772;28;20199;-77
2022/10/11 05:10:57;;;;;;;1.30;0.40;;;4.50;99.90;;;;;;5061733;28;20401;-77
2022/10/11 05:13:24;;;;;;;2.40;0.40;;;4.70;99.90;;;;;;5028097;28;20036;-78
2022/10/11 05:15:50;;;;;;;1.00;0.40;;;4.70;99.90;;;;;;5046073;28;20024;-77
2022/10/11 05:18:16;;;;;;;1.45;0.40;;;4.80;99.90;;;;;;5011975;28;20033;-78
2022/10/11 05:20:42;;;;;;;2.00;0.40;;;4.70;99.90;;;;;;5060860;28;20033;-77
2022/10/11 05:23:07;;;;;;;1.52;0.43;;;4.70;99.90;;;;;;5043689;28;20087;-76
2022/10/11 05:25:33;;;;;;;1.48;0.40;;;4.70;99.90;;;;;;5027607;28;20040;-78
2022/10/11 05:27:59;;;;;;;1.27;0.40;;;4.60;99.90;;;;;;5045976;28;20087;-77
2022/10/11 05:30:25;;;;;;;1.00;0.30;;;4.70;99.90;;;;;;5027800;28;20033;-76
2022/10/11 05:32:51;;;;;;;3.53;0.38;;;4.50;99.90;;;;;;5011296;28;20029;-77
2022/10/11 05:35:16;;;;;;;3.35;0.40;;;4.50;99.90;;;;;;5028406;28;20504;-78
2022/10/11 05:37:42;;;;;;;0.90;0.30;;;4.50;99.90;;;;;;5028815;28;20499;-77
2022/10/11 05:40:09;;;;;;;1.77;0.30;;;4.60;99.90;;;;;;5045682;28;20029;-77
2022/10/11 05:42:35;;;;;;;1.08;0.43;;;4.60;99.90;;;;;;5025166;28;20539;-78
2022/10/11 05:45:02;;;;;;;0.63;0.20;;;4.50;99.90;;;;;;5025622;28;20025;-77
2022/10/11 05:47:28;;;;;;;1.08;0.30;;;4.60;99.90;;;;;;5011582;28;20051;-79
2022/10/11 05:49:54;;;;;;;1.50;0.30;;;4.60;99.90;;;;;;5030373;28;20021;-77
2022/10/11 05:52:20;;;;;;;1.25;0.40;;;4.40;99.90;;;;;;5027900;28;20630;-78
2022/10/11 05:54:47;;;;;;;1.13;0.40;;;4.20;99.90;;;;;;5028377;28;20025;-78
2022/10/11 05:57:12;;;;;;;1.35;0.40;;;4.30;99.90;;;;;;5027331;28;20033;-79
2022/10/11 05:59:38;;;;;;;3.40;0.40;;;4.30;99.90;;;;;;5027590;28;20029;-80
2022/10/11 06:02:05;;;;;;;2.03;0.40;;;4.30;99.90;;;;;;5028868;28;20034;-80
2022/10/11 06:04:30;;;;;;;1.85;0.50;;;4.20;99.90;;;;;;5028499;28;20052;-78
2022/10/11 06:06:56;;;;;;;1.80;0.40;;;4.30;99.90;;;;;;5028734;28;20473;-76
2022/10/11 06:09:22;;;;;;;1.10;0.50;;;4.30;99.90;;;;;;5027708;28;20037;-77
2022/10/11 06:11:47;;;;;;;3.30;0.60;;;4.50;99.90;;;;;;5028460;28;20018;-79
2022/10/11 06:14:13;;;;;;;1.50;0.40;;;4.50;99.90;;;;;;5027666;28;20033;-78
2022/10/11 06:16:38;;;;;;;1.60;0.52;;;4.40;99.90;;;;;;5027598;28;20076;-77
2022/10/11 06:19:04;;;;;;;1.00;0.40;;;4.40;99.90;;;;;;5028090;28;20469;-77
2022/10/11 06:21:30;;;;;;;1.58;0.30;;;4.60;99.90;;;;;;5011246;28;20025;-76
2022/10/11 06:23:56;;;;;;;1.08;0.30;;;4.60;99.90;;;;;;5044133;28;20550;-80
2022/10/11 06:26:21;;;;;;;1.30;0.38;;;4.50;99.90;;;;;;5044135;28;20120;-77
2022/10/11 06:28:47;;;;;;;2.30;0.40;;;4.50;99.90;;;;;;5027801;28;20034;-77
2022/10/11 06:31:13;;;;;;;1.98;0.35;;;4.60;99.90;;;;;;5028756;28;20060;-77
2022/10/11 06:33:39;;;;;;;1.83;0.40;;;4.60;99.90;;;;;;5028394;28;20045;-79
2022/10/11 06:36:08;;;;;;;1.00;0.40;;;4.70;99.90;;;;;;5044301;28;20520;-78
2022/10/11 06:38:34;;;;;;;1.47;0.40;;;5.00;99.90;;;;;;5007106;28;20035;-78
2022/10/11 06:41:13;;;;;;;1.23;0.30;;;5.00;99.90;;;;;;5029028;28;20288;-77
2022/10/11 06:43:38;;;;;;;1.00;0.32;;;4.80;99.90;;;;;;5025239;28;20048;-78
2022/10/11 06:46:04;;;;;;;1.02;0.38;;;4.80;99.90;;;;;;5043954;28;20033;-81
2022/10/11 06:48:30;;;;;;;0.68;0.30;;;5.00;99.90;;;;;;5026608;28;20053;-80
2022/10/11 06:50:57;;;;;;;1.02;0.40;;;5.00;99.90;;;;;;5027616;28;20354;-81
2022/10/11 06:53:23;;;;;;;0.93;0.40;;;5.10;99.90;;;;;;5027967;28;20139;-77
2022/10/11 06:55:49;;;;;;;1.00;0.38;;;5.30;99.90;;;;;;5008737;28;20636;-77
2022/10/11 06:58:15;;;;;;;1.23;0.40;;;5.40;99.90;;;;;;5027251;28;20029;-78
2022/10/11 07:00:40;;;;;;;1.33;0.40;;;5.40;99.90;;;;;;5027424;28;20112;-80
2022/10/11 07:03:07;;;;;;;1.92;0.47;;;5.50;99.90;;;;;;5025479;28;20060;-77
2022/10/11 07:05:33;;;;;;;1.85;0.40;;;5.70;99.90;;;;;;5026995;28;20382;-77
2022/10/11 07:08:00;;;;;;;1.33;0.40;;;6.00;99.90;;;;;;5028061;28;20069;-77
2022/10/11 07:10:26;;;;;;;0.90;0.30;;;6.10;99.90;;;;;;5010024;28;20543;-78
2022/10/11 07:12:51;;;;;;;1.20;0.30;;;6.20;99.90;;;;;;5043055;28;20539;-80
2022/10/11 07:15:17;;;;;;;3.17;0.45;;;6.20;99.90;;;;;;5025736;28;20116;-79
2022/10/11 07:17:43;;;;;;;1.58;0.50;;;6.30;99.90;;;;;;5043701;28;20107;-78
2022/10/11 07:20:09;;;;;;;2.80;0.60;;;6.70;99.90;;;;;;5042512;28;20030;-80
2022/10/11 07:22:35;;;;;;;2.38;0.70;;;6.90;99.90;;;;;;5024807;28;20049;-79
2022/10/11 07:25:00;;;;;;;3.92;0.70;;;7.00;99.90;;;;;;5026595;28;20033;-79
2022/10/11 07:27:26;;;;;;;3.17;0.60;;;7.10;99.90;;;;;;5009642;28;20061;-77
2022/10/11 07:29:52;;;;;;;2.60;0.68;;;7.30;99.90;;;;;;5025878;28;20044;-79
2022/10/11 07:32:17;;;;;;;4.38;0.95;;;7.40;99.90;;;;;;4977544;28;20173;-77
2022/10/11 07:34:43;;;;;;;5.40;0.80;;;7.50;99.90;;;;;;5015034;28;20036;-78
2022/10/11 07:37:09;;;;;;;6.55;0.95;;;7.60;99.90;;;;;;5026412;28;20311;-78
2022/10/11 07:39:35;;;;;;;2.53;0.70;;;7.70;99.90;;;;;;5010285;28;20035;-78
2022/10/11 07:42:01;;;;;;;5.28;0.73;;;7.70;99.90;;;;;;5025163;28;20049;-80
2022/10/11 07:44:26;;;;;;;3.22;0.95;;;7.70;99.90;;;;;;5009489;28;20065;-78
2022/10/11 07:46:52;;;;;;;3.00;0.50;;;7.90;99.90;;;;;;5009579;28;20049;-80
2022/10/11 07:49:17;;;;;;;2.75;0.55;;;8.10;99.90;;;;;;5008722;28;20021;-78
2022/10/11 07:51:43;;;;;;;6.00;0.70;;;8.10;99.90;;;;;;5025308;28;20025;-78
2022/10/11 07:54:09;;;;;;;3.03;0.65;;;8.10;99.90;;;;;;5025531;28;20092;-78
2022/10/11 07:56:36;;;;;;;2.47;0.60;;;8.20;99.90;;;;;;5008032;28;20030;-78
2022/10/11 07:59:03;;;;;;;3.97;0.70;;;8.30;99.90;;;;;;5027058;28;20131;-78
2022/10/11 08:01:29;;;;;;;2.33;0.70;;;8.40;99.90;;;;;;5009728;28;20120;-78
2022/10/11 08:03:58;;;;;;;2.88;0.70;;;8.60;99.90;;;;;;5025755;28;20470;-78
2022/10/11 08:06:28;;;;;;;2.72;0.80;;;8.70;99.90;;;;;;5025287;28;20040;-79
2022/10/11 08:08:54;;;;;;;;;;;8.80;99.90;;;;;;5025901;28;20423;-78
2022/10/11 08:11:26;;;;;;;1.30;0.50;;;8.90;99.90;;;;;;5023441;28;19912;-79
2022/10/11 08:13:52;;;;;;;4.55;0.93;;;9.00;99.90;;;;;;5027064;28;20104;-78
2022/10/11 08:16:18;;;;;;;4.03;0.90;;;9.00;99.90;;;;;;5025949;28;20544;-77
2022/10/11 08:18:44;;;;;;;7.57;1.30;;;9.10;99.90;;;;;;5026399;28;20561;-78
2022/10/11 08:21:12;;;;;;;2.85;0.88;;;9.10;99.90;;;;;;5008685;28;20108;-78
2022/10/11 08:23:38;;;;;;;3.78;0.85;;;9.20;99.90;;;;;;5025156;28;20025;-78
2022/10/11 08:26:04;;;;;;;3.83;0.70;;;9.40;99.90;;;;;;5026120;28;20048;-79
2022/10/11 08:28:30;;;;;;;2.80;0.60;;;9.60;99.90;;;;;;5041748;28;20378;-78
2022/10/11 08:30:56;;;;;;;2.97;0.65;;;9.80;99.90;;;;;;5025585;28;20036;-78
2022/10/11 08:33:24;;;;;;;3.47;0.60;;;9.90;99.90;;;;;;5008678;28;20033;-79
2022/10/11 08:35:51;;;;;;;5.70;0.95;;;10.00;99.90;;;;;;5042503;28;20240;-77
2022/10/11 08:38:18;;;;;;;6.68;1.20;;;10.10;99.90;;;;;;5025464;28;20037;-78
2022/10/11 08:40:55;;;;;;;4.85;1.33;;;10.10;99.90;;;;;;5026275;28;20151;-78
2022/10/11 08:43:38;;;;;;;7.07;1.00;;;10.30;99.90;;;;;;5025001;28;20041;-77
2022/10/11 08:46:06;;;;;;;5.85;1.50;;;10.40;99.90;;;;;;5008756;28;20049;-79
2022/10/11 08:48:35;;;;;;;7.85;1.42;;;10.40;99.90;;;;;;5024348;28;20080;-77
2022/10/11 08:51:12;;;;;;;7.00;1.33;;;10.50;99.90;;;;;;5006012;28;22159;-78
2022/10/11 08:54:05;;;;;;;5.93;1.30;;;10.80;99.90;;;;;;5042096;28;20033;-77
2022/10/11 08:56:35;;;;;;;6.35;1.20;;;10.80;99.90;;;;;;5007911;28;20424;-79
2022/10/11 08:59:10;;;;;;;4.32;1.00;;;11.00;99.90;;;;;;5042225;28;20036;-78
2022/10/11 09:01:42;;;;;;;6.57;1.50;;;11.20;99.90;;;;;;5004241;28;20038;-79
2022/10/11 09:04:16;;;;;;;6.13;1.25;;;11.10;99.90;;;;;;5041528;28;20081;-78
2022/10/11 09:06:55;;;;;;;2.90;0.77;;;11.40;99.90;;;;;;5039952;28;20029;-80
2022/10/11 09:09:51;;;;;;;1.50;0.50;;;11.50;99.90;;;;;;5026281;28;20100;-78
2022/10/11 09:12:20;;;;;;;1.90;0.40;;;11.90;99.90;;;;;;5026543;28;20034;-77
2022/10/11 09:15:10;;;;;;;4.38;0.80;;;12.10;99.90;;;;;;5026598;28;20176;-77
2022/10/11 09:18:03;;;;;;;2.05;0.40;;;12.20;99.90;;;;;;5027448;28;20032;-81
2022/10/11 09:20:36;;;;;;;3.88;0.60;;;12.40;99.90;;;;;;5029850;28;20033;-77
2022/10/11 09:23:07;;;;;;;5.03;0.63;;;12.40;99.90;;;;;;5029045;28;20133;-78
2022/10/11 09:26:10;;;;;;;4.13;0.57;;;12.50;99.90;;;;;;5045420;28;20021;-77
2022/10/11 09:28:52;;;;;;;3.13;0.45;;;12.60;99.90;;;;;;5028975;28;20029;-77
2022/10/11 09:31:17;;;;;;;4.13;0.50;;;12.70;99.90;;;;;;5044049;28;20037;-77
2022/10/11 09:33:46;;;;;;;4.60;0.90;;;13.00;99.90;;;;;;5028281;28;20029;-77
2022/10/11 09:36:27;;;;;;;1.95;0.40;;;13.00;99.90;;;;;;5029740;28;20112;-81
2022/10/11 09:39:32;;;;;;;7.22;0.80;;;13.10;99.90;;;;;;5042734;28;20030;-76
2022/10/11 09:42:06;;;;;;;5.82;1.00;;;12.70;99.90;;;;;;5033357;28;20041;-77
2022/10/11 09:44:35;;;;;;;3.50;0.50;;;12.90;99.90;;;;;;5049518;28;20051;-77
2022/10/11 09:47:03;;;;;;;5.55;0.77;;;13.30;99.90;;;;;;5031800;28;20036;-79
2022/10/11 09:49:36;;;;;;;7.72;0.60;;;13.30;99.90;;;;;;5031699;28;20052;-78
2022/10/11 09:52:03;;;;;;;7.25;0.68;;;13.10;99.90;;;;;;5065231;28;20413;-79
2022/10/11 09:54:40;;;;;;;5.50;0.70;;;13.10;99.90;;;;;;5049673;28;20029;-77
2022/10/11 09:57:26;;;;;;;9.57;0.60;;;13.50;99.90;;;;;;5031403;28;20051;-76
2022/10/11 10:00:04;;;;;;;5.65;0.85;;;13.50;99.90;;;;;;5030728;28;20497;-78
2022/10/11 10:02:43;;;;;;;2.92;0.50;;;13.70;99.90;;;;;;5049558;28;20037;-77
2022/10/11 10:05:08;;;;;;;1.85;0.30;;;14.00;99.90;;;;;;5030426;28;20041;-76
2022/10/11 10:07:39;;;;;;;3.45;0.35;;;14.20;99.90;;;;;;5031886;28;20025;-78
2022/10/11 10:10:23;;;;;;;5.20;0.65;;;13.90;99.90;;;;;;5031849;28;20037;-77
2022/10/11 10:12:55;;;;;;;6.55;0.57;;;14.00;99.90;;;;;;5064865;28;20163;-79
2022/10/11 10:15:21;;;;;;;5.97;0.50;;;13.80;99.90;;;;;;5030152;28;20017;-79
2022/10/11 10:17:51;;;;;;;5.82;0.43;;;13.80;99.90;;;;;;5014325;28;20055;-76
2022/10/11 10:20:23;;;;;;;6.13;0.50;;;14.20;99.90;;;;;;5030591;28;20029;-77
2022/10/11 10:22:50;;;;;;;7.85;0.50;;;14.00;99.90;;;;;;5014647;28;20113;-78
2022/10/11 10:25:30;;;;;;;6.60;0.35;;;13.90;99.90;;;;;;5031039;28;20100;-77
2022/10/11 10:27:59;;;;;;;5.68;0.60;;;13.90;99.90;;;;;;5030107;28;20037;-78
2022/10/11 10:30:26;;;;;;;4.47;0.35;;;13.90;99.90;;;;;;5030281;28;20112;-77
2022/10/11 10:32:59;;;;;;;5.78;0.40;;;14.00;99.90;;;;;;5049008;28;20025;-77
2022/10/11 10:35:41;;;;;;;3.00;0.30;;;14.10;99.90;;;;;;5030482;28;20120;-77
2022/10/11 10:38:15;;;;;;;6.13;0.30;;;14.20;99.90;;;;;;5049010;28;20039;-77
2022/10/11 10:40:53;;;;;;;4.05;0.32;;;14.30;99.90;;;;;;5031481;28;20036;-79
2022/10/11 10:43:21;;;;;;;6.72;0.50;;;14.20;99.90;;;;;;5012899;28;20420;-80
2022/10/11 10:45:58;;;;;;;3.13;0.40;;;14.30;99.90;;;;;;5011747;28;20090;-77
2022/10/11 10:48:56;;;;;;;3.15;0.40;;;14.60;99.90;;;;;;5046945;28;20044;-78
2022/10/11 10:51:51;;;;;;;5.00;0.50;;;14.60;99.90;;;;;;4996587;28;20042;-76
2022/10/11 10:54:42;;;;;;;4.30;0.50;;;15.00;99.90;;;;;;5046895;28;20112;-78
2022/10/11 10:57:26;;;;;;;3.30;0.20;;;14.70;99.90;;;;;;5063032;28;20139;-77
2022/10/11 10:59:52;;;;;;;6.57;0.82;;;14.90;99.90;;;;;;5030188;28;20032;-77
2022/10/11 11:02:28;;;;;;;3.50;0.30;;;14.80;99.90;;;;;;5046237;28;20112;-78
2022/10/11 11:05:05;;;;;;;4.32;0.20;;;15.10;99.90;;;;;;5028501;28;20496;-77
2022/10/11 11:07:48;;;;;;;4.00;0.22;;;15.30;99.90;;;;;;5047934;28;20048;-78
2022/10/11 11:10:47;;;;;;;5.72;0.30;;;15.10;99.90;;;;;;5046428;28;20025;-77
2022/10/11 11:13:27;;;;;;;6.28;0.40;;;14.60;99.90;;;;;;5021335;28;20036;-77
2022/10/11 11:16:01;;;;;;;3.53;0.30;;;15.00;99.90;;;;;;5030679;28;20036;-78
2022/10/11 11:18:40;;;;;;;1.17;0.10;;;15.10;99.90;;;;;;5029571;28;20534;-77
2022/10/11 11:21:29;;;;;;;2.65;0.20;;;15.20;99.90;;;;;;5046831;28;20358;-78
2022/10/11 11:24:10;;;;;;;5.30;0.30;;;15.20;99.90;;;;;;5047205;28;20144;-76
2022/10/11 11:26:47;;;;;;;4.47;0.30;;;15.10;99.90;;;;;;5012676;28;20159;-79
2022/10/11 11:29:28;;;;;;;3.53;0.50;;;14.90;99.90;;;;;;5047514;28;20041;-78
2022/10/11 11:32:12;;;;;;;5.38;0.40;;;15.00;99.90;;;;;;5027292;28;20385;-77
2022/10/11 11:34:42;;;;;;;4.07;0.45;;;15.10;99.90;;;;;;5029991;28;20373;-77
2022/10/11 11:37:21;;;;;;;;;;;15.40;99.90;;;;;;5018584;28;20028;-76
2022/10/11 11:39:55;;;;;;;5.37;0.30;;;15.40;99.90;;;;;;5046195;28;19909;-77
2022/10/11 11:42:43;;;;;;;5.05;0.38;;;15.20;99.90;;;;;;5061608;28;20291;-78
2022/10/11 11:45:31;;;;;;;6.70;0.50;;;15.40;99.90;;;;;;5046475;28;20152;-79
2022/10/11 11:48:04;;;;;;;10.05;0.40;;;15.10;99.90;;;;;;5047359;28;20669;-77
2022/10/11 11:50:38;;;;;;;1.88;0.30;;;14.70;99.90;;;;;;5045611;28;20068;-77
2022/10/11 11:53:13;;;;;;;2.72;0.30;;;14.60;99.90;;;;;;5047187;28;20090;-77
2022/10/11 11:55:52;;;;;;;6.53;0.50;;;14.60;99.90;;;;;;5045736;28;20025;-76
2022/10/11 11:58:49;;;;;;;3.78;0.20;;;14.50;99.90;;;;;;5046315;28;20469;-76
2022/10/11 12:01:28;;;;;;;4.80;0.52;;;14.90;99.90;;;;;;5040259;28;20033;-77
2022/10/11 12:03:58;;;;;;;4.03;0.30;;;15.30;99.90;;;;;;5047074;28;20412;-80
2022/10/11 12:06:33;;;;;;;;;;;15.30;99.90;;;;;;5029835;28;20571;-81
2022/10/11 12:09:06;;;;;;;3.38;0.40;;;15.40;99.90;;;;;;5029203;28;20368;-79
2022/10/11 12:11:49;;;;;;;5.43;0.30;;;15.10;99.90;;;;;;5061510;28;20036;-78
2022/10/11 12:14:26;;;;;;;6.05;0.32;;;15.10;99.90;;;;;;5045508;28;20025;-78
2022/10/11 12:17:18;;;;;;;4.18;0.30;;;14.90;99.90;;;;;;5027266;28;20025;-82
2022/10/11 12:20:05;;;;;;;3.75;0.30;;;14.90;99.90;;;;;;5041886;28;20033;-81
2022/10/11 12:22:36;;;;;;;4.13;0.20;;;15.00;99.90;;;;;;5045448;28;20527;-82
2022/10/11 12:25:09;;;;;;;2.72;0.30;;;15.40;99.90;;;;;;5027311;28;20072;-78
2022/10/11 12:28:05;;;;;;;4.03;0.30;;;15.60;99.90;;;;;;5044362;28;20049;-81
2022/10/11 12:31:15;;;;;;;3.25;0.20;;;15.60;99.90;;;;;;5061284;28;20497;-81
2022/10/11 12:34:35;;;;;;;4.05;0.25;;;15.80;99.90;;;;;;5044870;28;20438;-78
2022/10/11 12:37:32;;;;;;;5.38;0.63;;;15.70;99.90;;;;;;5029642;28;20036;-77
2022/10/11 12:40:48;;;;;;;6.30;0.38;;;15.20;99.90;;;;;;5019835;28;20040;-84
2022/10/11 12:43:30;;;;;;;5.65;0.30;;;15.00;99.90;;;;;;5028026;28;20067;-81
2022/10/11 12:46:21;;;;;;;5.63;0.30;;;14.90;99.90;;;;;;5029219;28;20429;-78
2022/10/11 12:49:08;;;;;;;2.60;0.20;;;15.00;99.90;;;;;;5024240;28;20374;-81
2022/10/11 12:51:59;;;;;;;2.78;0.30;;;14.90;99.90;;;;;;5029124;28;20059;-78
2022/10/11 12:54:50;;;;;;;2.05;0.20;;;14.90;99.90;;;;;;5065700;28;20029;-78
2022/10/11 12:58:03;;;;;;;1.75;0.10;;;14.80;99.90;;;;;;5049660;28;20028;-78
2022/10/11 13:00:50;;;;;;;2.65;0.20;;;14.70;99.90;;;;;;5063248;28;20025;-82
2022/10/11 13:03:41;;;;;;;1.85;0.28;;;14.50;99.90;;;;;;5049895;28;20036;-77
2022/10/11 13:06:26;;;;;;;;;;;14.50;99.90;;;;;;5034290;28;20111;-78
2022/10/11 13:09:12;;;;;;;2.65;0.20;;;14.40;99.90;;;;;;5050327;28;19908;-79
2022/10/11 13:12:10;;;;;;;1.65;0.10;;;14.40;99.90;;;;;;5064756;28;20025;-79
2022/10/11 13:15:06;;;;;;;5.05;0.30;;;14.40;99.90;;;;;;5032365;28;20090;-80
2022/10/11 13:17:49;;;;;;;2.25;0.20;;;14.50;99.90;;;;;;5047441;28;20576;-79
2022/10/11 13:20:27;;;;;;;3.55;0.38;;;14.90;99.90;;;;;;5049829;28;20063;-81
2022/10/11 13:23:38;;;;;;;5.10;0.40;;;14.70;99.90;;;;;;5044052;28;20033;-78